SBFZ/FOR METAR and TAF weather

Enter ICAO airport designator
Station Type Date Time Source
SBFZ METAR 2019/02/16 07:00 UTC NOAA

SBFZ 160700Z VRB02KT 9999 VCSH BKN018 BKN100 26/25 Q1011


Station Type Date Time Source
SBFZ Decoded METAR 2019/02/16 07:00 UTC NOAA

Fortaleza / pinto Martins , Brazil (SBFZ) 03-47S 038-32W 25M
Feb 16, 2019 - 02:00 AM EST / 2019.02.16 0700 UTC
Wind: Variable at 2 MPH (2 KT):0
Visibility: greater than 7 mile(s):0
Sky conditions: mostly cloudy
Weather: showers in the vicinity
Temperature: 78 F (26 C)
Dew Point: 77 F (25 C)
Relative Humidity: 94%
Pressure (altimeter): 29.85 in. Hg (1011 hPa)
ob: SBFZ 160700Z VRB02KT 9999 VCSH BKN018 BKN100 26/25 Q1011
cycle: 7

Station Type Date Time Source
SBFZ TAF 2019/02/16 06:12 UTC NOAA

TAF TAF SBFZ 160200Z 1606/1706 08008KT 9000 SCT017 TN25/1607Z TX30/1616Z
TEMPO 1607/1610 6000 SHRA BKN018
RMK PEA


Example: see airport list